createdAt,value
2023-05-24T00:03:14.000Z,10.9
2023-05-24T00:06:05.000Z,17.6
2023-05-24T00:09:38.000Z,12.1
2023-05-24T00:13:11.000Z,13.3
2023-05-24T00:16:43.000Z,11.3
2023-05-24T00:20:16.000Z,13.7
2023-05-24T00:23:49.000Z,15.4
2023-05-24T00:27:21.000Z,14.9
2023-05-24T00:30:54.000Z,11.4
2023-05-24T00:34:27.000Z,12.4
2023-05-24T00:37:59.000Z,15.5
2023-05-24T00:41:32.000Z,9.9
2023-05-24T00:44:23.000Z,15.1
2023-05-24T00:47:56.000Z,13.9
2023-05-24T00:51:28.000Z,18
2023-05-24T00:55:01.000Z,12.7
2023-05-24T00:58:34.000Z,9.8
2023-05-24T01:02:06.000Z,15.4
2023-05-24T01:05:39.000Z,15.1
2023-05-24T01:09:12.000Z,14.3
2023-05-24T01:12:44.000Z,15.1
2023-05-24T01:16:17.000Z,10.8
2023-05-24T01:19:50.000Z,12.5
2023-05-24T01:22:41.000Z,10.8
2023-05-24T01:26:14.000Z,14.9
2023-05-24T01:29:46.000Z,11.5
2023-05-24T01:33:19.000Z,13.2
2023-05-24T01:36:52.000Z,14.8
2023-05-24T01:40:24.000Z,11.3
2023-05-24T01:43:57.000Z,14.2
2023-05-24T01:47:29.000Z,19.2
2023-05-24T01:51:02.000Z,13.2
2023-05-24T01:54:34.000Z,20.8
2023-05-24T01:58:07.000Z,12.7
2023-05-24T02:00:58.000Z,14.8
2023-05-24T02:04:31.000Z,12.8
2023-05-24T02:08:04.000Z,12.6
2023-05-24T02:11:36.000Z,16.3
2023-05-24T02:15:09.000Z,17.3
2023-05-24T02:18:42.000Z,11.6
2023-05-24T02:22:14.000Z,15.7
2023-05-24T02:25:47.000Z,12.6
2023-05-24T02:29:20.000Z,17.4
2023-05-24T02:32:52.000Z,12.7
2023-05-24T02:36:25.000Z,12.2
2023-05-24T02:39:16.000Z,15.7
2023-05-24T02:42:49.000Z,13.4
2023-05-24T02:46:21.000Z,18.4
2023-05-24T02:49:54.000Z,15.6
2023-05-24T02:53:26.000Z,13.9
2023-05-24T02:56:59.000Z,17
2023-05-24T03:00:32.000Z,18.3
2023-05-24T03:04:05.000Z,18.1
2023-05-24T03:07:38.000Z,12.6
2023-05-24T03:11:10.000Z,15
2023-05-24T03:14:43.000Z,14
2023-05-24T03:17:34.000Z,16.2
2023-05-24T03:21:08.000Z,16.2
2023-05-24T03:24:41.000Z,15.7
2023-05-24T03:28:14.000Z,15.9
2023-05-24T03:31:46.000Z,16.5
2023-05-24T03:35:19.000Z,13.6
2023-05-24T03:38:52.000Z,16.1
2023-05-24T03:42:24.000Z,16.1
2023-05-24T03:45:57.000Z,19.9
2023-05-24T03:49:30.000Z,18.9
2023-05-24T03:53:02.000Z,18
2023-05-24T03:55:53.000Z,19.4
2023-05-24T03:59:26.000Z,18.7
2023-05-24T04:02:59.000Z,17.3
2023-05-24T04:06:31.000Z,13.7
2023-05-24T04:10:04.000Z,12.5
2023-05-24T04:13:37.000Z,16.7
2023-05-24T04:17:10.000Z,16.4
2023-05-24T04:20:42.000Z,13.5
2023-05-24T04:24:15.000Z,14.3
2023-05-24T04:27:48.000Z,14.2
2023-05-24T04:31:21.000Z,12.5
2023-05-24T04:34:12.000Z,15
2023-05-24T04:37:45.000Z,17.7
2023-05-24T04:41:17.000Z,14.3
2023-05-24T04:44:50.000Z,20.9
2023-05-24T04:48:22.000Z,18.2
2023-05-24T04:51:55.000Z,16.3
2023-05-24T04:55:28.000Z,19.4
2023-05-24T04:59:00.000Z,16.9
2023-05-24T05:02:33.000Z,19.6
2023-05-24T05:06:06.000Z,17
2023-05-24T05:09:39.000Z,15.8
2023-05-24T05:12:30.000Z,18.4
2023-05-24T05:16:03.000Z,15.3
2023-05-24T05:19:35.000Z,18.4
2023-05-24T05:23:08.000Z,15.8
2023-05-24T05:26:40.000Z,17.2
2023-05-24T05:30:13.000Z,18.9
2023-05-24T05:33:46.000Z,15.3
2023-05-24T05:37:18.000Z,16.5
2023-05-24T05:40:51.000Z,19.9
2023-05-24T05:44:24.000Z,17.3
2023-05-24T05:47:56.000Z,13.8
2023-05-24T05:50:48.000Z,24.7
2023-05-24T05:54:20.000Z,15.9
2023-05-24T05:57:53.000Z,18.5
2023-05-24T06:01:25.000Z,22
2023-05-24T06:04:58.000Z,20.2
2023-05-24T06:08:31.000Z,20.9
2023-05-24T06:12:04.000Z,22.2
2023-05-24T06:15:36.000Z,18.5
2023-05-24T06:19:09.000Z,18.2
2023-05-24T06:22:42.000Z,27.2
2023-05-24T06:26:15.000Z,20.8
2023-05-24T06:29:06.000Z,25.4
2023-05-24T06:32:39.000Z,20.4
2023-05-24T06:36:12.000Z,21
2023-05-24T06:39:44.000Z,20.9
2023-05-24T06:43:17.000Z,21.4
2023-05-24T06:46:49.000Z,21.4
2023-05-24T06:50:23.000Z,18.4
2023-05-24T06:53:55.000Z,20.3
2023-05-24T06:57:28.000Z,19.1
2023-05-24T07:01:00.000Z,22.3
2023-05-24T07:04:33.000Z,19.3
2023-05-24T07:07:25.000Z,19.1
2023-05-24T07:10:58.000Z,22.8
2023-05-24T07:14:30.000Z,20.9
2023-05-24T07:18:03.000Z,18.6
2023-05-24T07:21:36.000Z,20.5
2023-05-24T07:25:08.000Z,13.3
2023-05-24T07:28:41.000Z,20.9
2023-05-24T07:32:30.000Z,23.5
2023-05-24T07:36:03.000Z,30
2023-05-24T07:39:35.000Z,24
2023-05-24T07:43:08.000Z,26.8
2023-05-24T07:45:59.000Z,26
2023-05-24T07:49:32.000Z,24.7
2023-05-24T07:53:04.000Z,23.5
2023-05-24T07:56:37.000Z,21.9
2023-05-24T08:00:09.000Z,20.5
2023-05-24T08:03:42.000Z,30.7
2023-05-24T08:07:15.000Z,23.5
2023-05-24T08:10:47.000Z,21.4
2023-05-24T08:14:20.000Z,20.5
2023-05-24T08:17:53.000Z,17.1
2023-05-24T08:21:26.000Z,24.2
2023-05-24T08:24:17.000Z,24.1
2023-05-24T08:27:49.000Z,23.9
2023-05-24T08:31:22.000Z,20.6
2023-05-24T08:34:55.000Z,27
2023-05-24T08:38:45.000Z,17.5
2023-05-24T08:42:17.000Z,16
2023-05-24T08:45:50.000Z,23.1
2023-05-24T08:49:23.000Z,16.4
2023-05-24T08:52:59.000Z,19
2023-05-24T08:56:31.000Z,20.3
2023-05-24T09:00:04.000Z,20.8
2023-05-24T09:02:55.000Z,21.6
2023-05-24T09:06:28.000Z,19.8
2023-05-24T09:10:01.000Z,17.4
2023-05-24T09:13:37.000Z,14.4
2023-05-24T09:17:10.000Z,20.9
2023-05-24T09:20:43.000Z,21.5
2023-05-24T09:24:15.000Z,19.2
2023-05-24T09:27:48.000Z,19.5
2023-05-24T09:31:21.000Z,17.8
2023-05-24T09:34:53.000Z,21.3
2023-05-24T09:38:26.000Z,19
2023-05-24T09:41:18.000Z,21.7
2023-05-24T09:44:50.000Z,19.9
2023-05-24T09:48:23.000Z,15.4
2023-05-24T09:51:56.000Z,16.9
2023-05-24T09:55:28.000Z,18.5
2023-05-24T09:59:03.000Z,15
2023-05-24T10:02:36.000Z,18.1
2023-05-24T10:06:19.000Z,16.1
2023-05-24T10:09:51.000Z,13.8
2023-05-24T10:13:24.000Z,15.4
2023-05-24T10:16:57.000Z,13.5
2023-05-24T10:19:48.000Z,12.2
2023-05-24T10:23:21.000Z,16.4
2023-05-24T10:26:53.000Z,14.3
2023-05-24T10:30:26.000Z,14.3
2023-05-24T10:33:59.000Z,12.1
2023-05-24T10:37:34.000Z,14.3
2023-05-24T10:41:06.000Z,14.9
2023-05-24T10:44:39.000Z,15.6
2023-05-24T10:48:12.000Z,17.4
2023-05-24T10:51:45.000Z,14.8
2023-05-24T10:55:17.000Z,14.4
2023-05-24T10:58:08.000Z,11.3
2023-05-24T11:01:41.000Z,16.9
2023-05-24T11:05:14.000Z,14.1
2023-05-24T11:08:47.000Z,13.8
2023-05-24T11:12:19.000Z,14
2023-05-24T11:15:52.000Z,10.9
2023-05-24T11:19:25.000Z,12.1
2023-05-24T11:22:57.000Z,9.8
2023-05-24T11:26:30.000Z,18.4
2023-05-24T11:30:03.000Z,13.6
2023-05-24T11:33:41.000Z,11.6
2023-05-24T11:36:33.000Z,13.9
2023-05-24T11:40:05.000Z,13.1
2023-05-24T11:43:38.000Z,14.7
2023-05-24T11:47:11.000Z,12.8
2023-05-24T11:50:43.000Z,12.4
2023-05-24T11:54:16.000Z,13.5
2023-05-24T11:57:48.000Z,21
2023-05-24T12:01:21.000Z,13.8
2023-05-24T12:04:56.000Z,12.2
2023-05-24T12:08:28.000Z,9.7
2023-05-24T12:12:01.000Z,15.6
2023-05-24T12:14:52.000Z,12.4
2023-05-24T12:18:25.000Z,11.1
2023-05-24T12:21:59.000Z,8.6
2023-05-24T12:25:32.000Z,11.2
2023-05-24T12:29:05.000Z,7.5
2023-05-24T12:32:38.000Z,14.1
2023-05-24T12:36:11.000Z,8.8
2023-05-24T12:39:43.000Z,10.3
2023-05-24T12:43:19.000Z,9.7
2023-05-24T12:46:52.000Z,10.1
2023-05-24T12:50:25.000Z,8
2023-05-24T12:53:16.000Z,9.2
2023-05-24T12:56:49.000Z,10
2023-05-24T13:00:23.000Z,9.1
2023-05-24T13:03:55.000Z,11.4
2023-05-24T13:07:28.000Z,8.2
2023-05-24T13:11:01.000Z,9.6
2023-05-24T13:14:33.000Z,11.1
2023-05-24T13:18:06.000Z,11.3
2023-05-24T13:21:39.000Z,8.8
2023-05-24T13:25:11.000Z,9.9
2023-05-24T13:28:44.000Z,11.3
2023-05-24T13:32:14.000Z,9.6
2023-05-24T13:35:47.000Z,10.6
2023-05-24T13:39:20.000Z,14.9
2023-05-24T13:42:52.000Z,12.5
2023-05-24T13:46:25.000Z,13.4
2023-05-24T13:49:58.000Z,11.7
2023-05-24T13:53:30.000Z,13.8
2023-05-24T13:57:03.000Z,10.4
2023-05-24T14:00:36.000Z,11.5
2023-05-24T14:04:09.000Z,12
2023-05-24T14:07:42.000Z,9.1
2023-05-24T14:10:33.000Z,10.2
2023-05-24T14:17:42.000Z,10.3
2023-05-24T14:21:15.000Z,13
2023-05-24T14:24:47.000Z,10.4
2023-05-24T14:28:20.000Z,10
2023-05-24T14:31:53.000Z,12.2
2023-05-24T14:35:26.000Z,9.2
2023-05-24T14:38:58.000Z,11.7
2023-05-24T14:42:31.000Z,10.3
2023-05-24T14:46:04.000Z,7.7
2023-05-24T14:48:55.000Z,11.2
2023-05-24T14:52:28.000Z,9.1
2023-05-24T14:56:01.000Z,12.6
2023-05-24T14:59:33.000Z,12.7
2023-05-24T15:03:06.000Z,11
2023-05-24T15:06:39.000Z,10.8
2023-05-24T15:10:12.000Z,9.8
2023-05-24T15:13:44.000Z,11.1
2023-05-24T15:17:17.000Z,11
2023-05-24T15:20:50.000Z,11.3
2023-05-24T15:24:23.000Z,11.1
2023-05-24T15:27:15.000Z,12.7
2023-05-24T15:30:47.000Z,7.3
2023-05-24T15:34:20.000Z,8.6
2023-05-24T15:37:53.000Z,10.1
2023-05-24T15:41:26.000Z,8.5
2023-05-24T15:44:58.000Z,11.2
2023-05-24T15:48:31.000Z,10.2
2023-05-24T15:52:04.000Z,10.1
2023-05-24T15:55:36.000Z,11.7
2023-05-24T15:59:09.000Z,10
2023-05-24T16:02:44.000Z,11.8
2023-05-24T16:05:35.000Z,8.4
2023-05-24T16:09:08.000Z,9.1
2023-05-24T16:12:41.000Z,12.9
2023-05-24T16:16:13.000Z,8.5
2023-05-24T16:19:46.000Z,10.4
2023-05-24T16:23:19.000Z,12.3
2023-05-24T16:26:52.000Z,10.9
2023-05-24T16:30:24.000Z,11.9
2023-05-24T16:33:57.000Z,8
2023-05-24T16:37:30.000Z,10
2023-05-24T16:41:02.000Z,11.4
2023-05-24T16:43:53.000Z,9.8
2023-05-24T16:47:26.000Z,8.5
2023-05-24T16:50:59.000Z,11.3
2023-05-24T16:54:32.000Z,14.7
2023-05-24T16:58:04.000Z,11.7
2023-05-24T17:01:37.000Z,12.7
2023-05-24T17:05:10.000Z,9.6
2023-05-24T17:08:42.000Z,13.3
2023-05-24T17:12:15.000Z,10.4
2023-05-24T17:15:48.000Z,14.3
2023-05-24T17:19:21.000Z,11.9
2023-05-24T17:22:12.000Z,11.3
2023-05-24T17:25:44.000Z,10.6
2023-05-24T17:29:21.000Z,9.5
2023-05-24T17:32:53.000Z,12
2023-05-24T17:36:26.000Z,10.6
2023-05-24T17:39:59.000Z,11.1
2023-05-24T17:43:31.000Z,9.4
2023-05-24T17:47:04.000Z,13
2023-05-24T17:50:37.000Z,9.5
2023-05-24T17:54:09.000Z,10.9
2023-05-24T17:57:42.000Z,9.6
2023-05-24T18:00:34.000Z,12.9
2023-05-24T18:04:06.000Z,10.3
2023-05-24T18:07:39.000Z,13.3
2023-05-24T18:11:12.000Z,11.6
2023-05-24T18:14:44.000Z,14.6
2023-05-24T18:18:17.000Z,10.5
2023-05-24T18:21:50.000Z,12.7
2023-05-24T18:25:22.000Z,10.7
2023-05-24T18:28:55.000Z,10.4
2023-05-24T18:32:28.000Z,12.3
2023-05-24T18:36:01.000Z,9.5
2023-05-24T18:38:52.000Z,10.4
2023-05-24T18:42:25.000Z,12.5
2023-05-24T18:45:58.000Z,12.2
2023-05-24T18:49:30.000Z,12.1
2023-05-24T18:53:03.000Z,10
2023-05-24T18:56:35.000Z,8.9
2023-05-24T19:00:08.000Z,12
2023-05-24T19:03:41.000Z,11.7
2023-05-24T19:07:13.000Z,8.9
2023-05-24T19:10:46.000Z,11.4
2023-05-24T19:14:19.000Z,13.2
2023-05-24T19:17:10.000Z,13.7
2023-05-24T19:20:43.000Z,11.3
2023-05-24T19:24:15.000Z,13.4
2023-05-24T19:27:48.000Z,11.6
2023-05-24T19:31:25.000Z,10.6
2023-05-24T19:34:58.000Z,11.1
2023-05-24T19:38:31.000Z,12.7
2023-05-24T19:42:04.000Z,14.8
2023-05-24T19:45:36.000Z,10.8
2023-05-24T19:49:10.000Z,9.1
2023-05-24T19:52:44.000Z,14.2
2023-05-24T19:55:35.000Z,9.4
2023-05-24T19:59:07.000Z,14.7
2023-05-24T20:02:40.000Z,13.3
2023-05-24T20:06:13.000Z,10.8
2023-05-24T20:09:46.000Z,11.2
2023-05-24T20:13:18.000Z,11
2023-05-24T20:16:51.000Z,13.3
2023-05-24T20:20:24.000Z,10.6
2023-05-24T20:23:56.000Z,16.8
2023-05-24T20:27:29.000Z,13.2
2023-05-24T20:31:02.000Z,13.5
2023-05-24T20:33:53.000Z,10.8
2023-05-24T20:37:25.000Z,12.1
2023-05-24T20:40:58.000Z,12.1
2023-05-24T20:44:31.000Z,10.6
2023-05-24T20:48:03.000Z,12.1
2023-05-24T20:51:36.000Z,13.4
2023-05-24T20:55:09.000Z,11.6
2023-05-24T20:58:42.000Z,13.4
2023-05-24T21:02:14.000Z,10.4
2023-05-24T21:05:47.000Z,12.2
2023-05-24T21:09:20.000Z,9.2
2023-05-24T21:12:11.000Z,12.2
2023-05-24T21:15:44.000Z,10.4
2023-05-24T21:19:16.000Z,11.1
2023-05-24T21:22:49.000Z,12.9
2023-05-24T21:26:22.000Z,11.2
2023-05-24T21:29:54.000Z,13.1
2023-05-24T21:33:28.000Z,10.6
2023-05-24T21:37:01.000Z,10
2023-05-24T21:40:34.000Z,10.4
2023-05-24T21:44:06.000Z,12.2
2023-05-24T21:47:39.000Z,11.2
2023-05-24T21:50:31.000Z,13.1
2023-05-24T21:54:03.000Z,10.4
2023-05-24T21:57:36.000Z,12.5
2023-05-24T22:01:08.000Z,11
2023-05-24T22:04:41.000Z,11.5
2023-05-24T22:08:14.000Z,9.2
2023-05-24T22:11:47.000Z,12.4
2023-05-24T22:15:19.000Z,14.2
2023-05-24T22:18:52.000Z,12.7
2023-05-24T22:22:25.000Z,10.3
2023-05-24T22:25:57.000Z,13.6
2023-05-24T22:28:48.000Z,9.2
2023-05-24T22:32:21.000Z,11.9
2023-05-24T22:35:54.000Z,8.1
2023-05-24T22:39:26.000Z,11
2023-05-24T22:42:59.000Z,14.8
2023-05-24T22:46:32.000Z,9.6
2023-05-24T22:50:04.000Z,10.8
2023-05-24T22:53:37.000Z,8.5
2023-05-24T22:57:10.000Z,11.9
2023-05-24T23:00:43.000Z,8.2
2023-05-24T23:04:15.000Z,10.9
2023-05-24T23:07:07.000Z,10.2
2023-05-24T23:10:39.000Z,7.8
2023-05-24T23:14:12.000Z,9.1
2023-05-24T23:17:44.000Z,11
2023-05-24T23:21:17.000Z,9.2
2023-05-24T23:24:50.000Z,9.8
2023-05-24T23:28:22.000Z,9.6
2023-05-24T23:31:55.000Z,9.2
2023-05-24T23:35:28.000Z,8.2
2023-05-24T23:39:00.000Z,6.4
2023-05-24T23:42:33.000Z,6.8
2023-05-24T23:45:24.000Z,7.6
2023-05-24T23:48:57.000Z,8.8
2023-05-24T23:52:38.000Z,8.9
2023-05-24T23:56:11.000Z,9.4
2023-05-24T23:59:43.000Z,8
